アスタナ の空港の天気 - METARとTAF

アスタナ国際空港 ( UACC / TSE ) - カザフスタン アスタナ
飛行場実況気象(Metar)
観測時間02/17 19:30 QYZT (02/17 14:30 UTC)
風向・風速南 4m/s
視程10km以上
天気現象弱いしゅう雪
全天の4割程度の雲 雲底高度 460m
全天を覆う雲 雲底高度 1010m
気温-2℃
湿度93%
気圧999hPa
METARUACC 171430Z 17004MPS 9999 -SHSN SCT015 OVC033CB M02/M03 Q0999 R22/4/0360 NOSIG RMK QFE718/0958
過去の天気等 Google飛行場航空写真 Wunderground天気予報

過去48時間のMETAR

飛行場予報(TAF)
発表時間: 2/17 16:00 QYZT (2/17 11:00 UTC)
予報対象時間: 17日17時 QYZT ~ 18日17時 QYZT
風向・風速南 5m/s
視程6000m
全天の4割程度の雲 雲底高度 300m
全天を覆う雲 雲底高度 610m
17日17時 QYZT ~ 18日3時 QYZT に一時的に
視程2000m
天気現象弱いしゅう雪 もや
少しの雲 雲底高度 90m
全天の8割程度の積乱雲 雲底高度 340m
18日3時 QYZT から
風向・風速南西 6m/s
視程3100m
天気現象
全天の8割程度の雲 雲底高度 210m
全天を覆う雲 雲底高度 460m
18日3時 QYZT ~ 18日9時 QYZT に一時的に
視程1000m
天気現象しゅう雪 もや
全天の8割程度の雲 雲底高度 120m
全天を覆う積乱雲 雲底高度 340m
18日9時 QYZT から
風向・風速南西 10m/s
視程6000m
全天の4割程度の雲 雲底高度 300m
全天の8割程度の雲 雲底高度 610m
18日9時 QYZT ~ 18日17時 QYZT に一時的に
風向・風速西南西 10m/s 瞬間風速 15m/s
視程3100m
天気現象弱い雪 低い地吹雪
少しの雲 雲底高度 120m
全天の8割程度の雲 雲底高度 460m
TAF UACC 171100Z 1712/1812 17005MPS 6000 SCT010 OVC020 TXM01/1712Z TNM05/1812Z
TEMPO 1712/1722 2000 -SHSN BR FEW003 BKN011CB
FM172200 23006MPS 3100 SN BKN007 OVC015
TEMPO 1722/1804 1000 SHSN BR BKN004 OVC011CB
FM180400 23010MPS 6000 SCT010 BKN020
TEMPO 1804/1812 24010G15MPS 3100 -SN DRSN FEW004 BKN015